Time;durP1;ratioP1;P1;durP2;ratioP2;P2;SDS_P1;SDS_P2;PMS_P1;PMS_P2;Temp;Humidity;BMP_temperature;BMP_pressure;BME280_temperature;BME280_humidity;BME280_pressure;Samples;Min_cycle;Max_cycle;Signal;HPM_P1;HPM_P2
2022/08/09 00:01:49;;;;;;;7.85;4.00;;;;;;;17.46;90.34;102508.38;6211257;23;20013;-70
2022/08/09 00:04:15;;;;;;;9.80;4.25;;;;;;;17.40;90.19;102510.13;6215505;23;20024;-71
2022/08/09 00:06:42;;;;;;;5.55;4.10;;;;;;;17.38;91.01;102505.97;6215901;23;20032;-70
2022/08/09 00:09:08;;;;;;;4.50;4.10;;;;;;;17.37;90.47;102502.41;6215764;23;20004;-70
2022/08/09 00:11:34;;;;;;;9.27;4.25;;;;;;;17.44;89.45;102497.69;6215007;23;20027;-70
2022/08/09 00:13:59;;;;;;;6.30;4.20;;;;;;;17.46;88.58;102498.28;6216039;23;20426;-70
2022/08/09 00:16:24;;;;;;;7.30;4.07;;;;;;;17.43;89.21;102503.38;6216596;23;20009;-70
2022/08/09 00:18:49;;;;;;;6.53;3.90;;;;;;;17.41;89.22;102500.88;6215740;23;20004;-69
2022/08/09 00:21:15;;;;;;;8.60;4.43;;;;;;;17.44;88.64;102496.84;6239697;23;19993;-70
2022/08/09 00:23:40;;;;;;;4.47;3.72;;;;;;;17.36;89.35;102492.50;6235819;23;20005;-70
2022/08/09 00:26:06;;;;;;;9.00;4.13;;;;;;;17.31;90.30;102495.09;6216991;23;20366;-69
2022/08/09 00:28:33;;;;;;;6.40;3.65;;;;;;;17.22;90.88;102496.50;6215776;23;20004;-70
2022/08/09 00:30:58;;;;;;;5.35;3.90;;;;;;;17.21;91.09;102505.75;6215257;23;20032;-70
2022/08/09 00:33:23;;;;;;;9.02;4.00;;;;;;;17.28;89.67;102498.31;6214643;23;20004;-70
2022/08/09 00:35:49;;;;;;;5.40;3.58;;;;;;;17.30;89.37;102493.44;6215636;23;20055;-70
2022/08/09 00:38:14;;;;;;;8.15;3.97;;;;;;;17.31;88.70;102490.47;6215171;23;20047;-70
2022/08/09 00:40:43;;;;;;;8.90;4.10;;;;;;;17.24;90.14;102503.41;6214703;23;20300;-70
2022/08/09 00:43:08;;;;;;;6.50;3.95;;;;;;;17.28;89.47;102501.03;6188469;23;20039;-70
2022/08/09 00:45:34;;;;;;;6.88;3.90;;;;;;;17.21;89.95;102500.28;6215125;23;20413;-70
2022/08/09 00:48:00;;;;;;;5.93;4.00;;;;;;;17.15;90.93;102502.03;6215055;23;20005;-69
2022/08/09 00:50:25;;;;;;;6.93;4.05;;;;;;;17.12;90.29;102500.59;6214644;23;20001;-70
2022/08/09 00:52:52;;;;;;;8.82;4.57;;;;;;;17.06;90.98;102498.78;6215319;23;20020;-70
2022/08/09 00:55:18;;;;;;;9.73;4.20;;;;;;;17.10;90.94;102499.16;6215212;23;20051;-70
2022/08/09 00:57:44;;;;;;;8.32;3.63;;;;;;;17.11;90.69;102501.66;6215294;23;20008;-70
2022/08/09 01:00:10;;;;;;;5.00;3.78;;;;;;;17.03;91.71;102499.25;6214492;23;20005;-69
2022/08/09 01:02:39;;;;;;;8.82;3.70;;;;;;;17.06;91.42;102503.41;6210471;23;20450;-70
2022/08/09 01:05:30;;;;;;;8.60;3.58;;;;;;;17.05;89.79;102502.56;6215257;23;20016;-70
2022/08/09 01:08:10;;;;;;;7.43;4.10;;;;;;;17.06;90.16;102498.78;6215218;23;20358;-70
2022/08/09 01:11:05;;;;;;;8.80;4.22;;;;;;;16.99;90.00;102492.56;6214982;23;20436;-70
2022/08/09 01:13:33;;;;;;;4.38;3.97;;;;;;;16.93;91.89;102498.94;6214819;23;20008;-69
2022/08/09 01:16:00;;;;;;;5.40;3.70;;;;;;;16.93;91.72;102501.66;6215096;23;20001;-70
2022/08/09 01:18:30;;;;;;;6.30;3.58;;;;;;;16.90;91.93;102499.38;6214043;23;20032;-70
2022/08/09 01:21:08;;;;;;;7.00;3.92;;;;;;;16.95;90.85;102502.25;6215505;23;20015;-70
2022/08/09 01:23:52;;;;;;;7.07;3.65;;;;;;;16.90;91.19;102502.13;6214731;23;20005;-70
2022/08/09 01:26:43;;;;;;;4.97;3.58;;;;;;;16.94;90.02;102503.31;6215247;23;20011;-70
2022/08/09 01:29:11;;;;;;;7.38;3.60;;;;;;;16.90;90.96;102510.31;6212591;23;20004;-70
2022/08/09 01:31:39;;;;;;;4.10;3.70;;;;;;;16.85;92.06;102497.31;6212833;23;20001;-70
2022/08/09 01:34:06;;;;;;;5.55;3.60;;;;;;;16.84;91.41;102488.25;6215275;23;20051;-69
2022/08/09 01:36:33;;;;;;;5.22;3.60;;;;;;;16.80;92.26;102495.25;6214833;23;20326;-69
2022/08/09 01:39:00;;;;;;;6.45;4.10;;;;;;;16.80;91.69;102497.13;6213960;23;20035;-69
2022/08/09 01:41:29;;;;;;;9.98;3.80;;;;;;;16.83;91.38;102493.94;6214277;23;20318;-69
2022/08/09 01:43:57;;;;;;;12.07;3.95;;;;;;;16.80;91.11;102494.41;6214500;23;20012;-69
2022/08/09 01:46:44;;;;;;;8.82;3.75;;;;;;;16.88;89.81;102494.16;6214021;23;20008;-69
2022/08/09 01:49:13;;;;;;;7.35;3.88;;;;;;;16.78;92.20;102494.63;6214614;23;20080;-69
2022/08/09 01:51:51;;;;;;;5.43;3.70;;;;;;;16.76;92.74;102496.75;6214190;23;20456;-69
2022/08/09 01:54:20;;;;;;;5.28;4.00;;;;;;;16.77;91.91;102495.72;6215100;23;20084;-69
2022/08/09 01:56:48;;;;;;;10.02;4.07;;;;;;;16.68;92.18;102496.22;6214296;23;20078;-69
2022/08/09 01:59:17;;;;;;;7.65;4.35;;;;;;;16.67;93.65;102500.84;6214086;23;20418;-69
2022/08/09 02:01:46;;;;;;;12.90;4.85;;;;;;;16.62;93.46;102497.94;6210073;23;20096;-69
2022/08/09 02:04:12;;;;;;;8.18;4.38;;;;;;;16.57;94.57;102506.00;6214080;23;20067;-69
2022/08/09 02:09:25;;;;;;;9.32;4.50;;;;;;;16.49;95.43;102507.13;6214004;23;20027;-69
2022/08/09 02:11:53;;;;;;;7.18;3.88;;;;;;;16.45;96.21;102512.19;6215137;23;20051;-69
2022/08/09 02:14:20;;;;;;;6.47;4.47;;;;;;;16.43;95.56;102505.28;6217050;23;20513;-69
2022/08/09 02:16:47;;;;;;;5.97;4.28;;;;;;;16.37;96.06;102512.47;6216337;23;20008;-69
2022/08/09 02:19:12;;;;;;;7.75;3.80;;;;;;;16.43;95.52;102505.28;6189816;23;20087;-69
2022/08/09 02:21:40;;;;;;;6.88;4.07;;;;;;;16.42;95.19;102498.97;6216068;23;20050;-69
2022/08/09 02:24:10;;;;;;;6.82;3.92;;;;;;;16.33;96.59;102505.78;6216535;23;20418;-69
2022/08/09 02:26:37;;;;;;;11.65;4.05;;;;;;;16.28;97.12;102500.16;6216470;23;20058;-69
2022/08/09 02:29:19;;;;;;;11.68;4.57;;;;;;;16.26;97.58;102505.00;6216190;23;20330;-69
2022/08/09 02:31:46;;;;;;;;;;;;;;;16.43;89.99;102497.09;6216354;23;20008;-69
2022/08/09 02:34:17;;;;;;;4.13;3.72;;;;;;;16.33;96.01;102502.22;6216567;23;19945;-69
2022/08/09 02:36:47;;;;;;;8.32;4.05;;;;;;;16.27;97.25;102495.75;6215840;23;20441;-69
2022/08/09 02:39:20;;;;;;;6.50;4.00;;;;;;;16.31;96.57;102491.53;6216000;23;20005;-69
2022/08/09 02:41:52;;;;;;;8.88;4.20;;;;;;;16.24;97.71;102493.47;6216270;23;20079;-68
2022/08/09 02:44:23;;;;;;;6.63;3.85;;;;;;;16.22;97.98;102495.59;6216730;23;20048;-69
2022/08/09 02:46:50;;;;;;;6.65;3.97;;;;;;;16.22;98.02;102490.13;6216466;23;20000;-69
2022/08/09 02:49:20;;;;;;;5.97;4.13;;;;;;;16.23;98.25;102489.03;6215933;23;20000;-69
2022/08/09 02:51:52;;;;;;;6.55;4.60;;;;;;;16.20;98.50;102495.81;6216077;23;20035;-69
2022/08/09 02:54:19;;;;;;;7.80;4.45;;;;;;;16.16;99.33;102489.13;6216746;23;20005;-69
2022/08/09 02:56:47;;;;;;;7.35;4.40;;;;;;;16.11;99.74;102495.25;6215605;23;20321;-69
2022/08/09 02:59:14;;;;;;;9.45;4.57;;;;;;;16.13;99.80;102490.38;6216123;23;20467;-69
2022/08/09 03:01:41;;;;;;;7.00;4.88;;;;;;;16.11;100.00;102502.63;6185721;23;20016;-69
2022/08/09 03:04:09;;;;;;;9.75;4.32;;;;;;;16.09;100.00;102491.06;6216710;23;20057;-71
2022/08/09 03:06:35;;;;;;;8.25;4.85;;;;;;;16.04;100.00;102491.72;6215837;23;20509;-68
2022/08/09 03:09:01;;;;;;;9.35;4.65;;;;;;;16.00;100.00;102486.94;6216221;23;20059;-68
2022/08/09 03:11:27;;;;;;;7.53;4.80;;;;;;;16.01;100.00;102488.63;6217213;23;20015;-68
2022/08/09 03:13:54;;;;;;;5.85;4.60;;;;;;;15.99;100.00;102491.56;6228229;23;20016;-68
2022/08/09 03:16:22;;;;;;;7.07;4.75;;;;;;;15.96;100.00;102494.75;6243660;23;20009;-69
2022/08/09 03:18:48;;;;;;;8.18;4.63;;;;;;;16.00;100.00;102492.38;6220335;23;20013;-71
2022/08/09 03:21:19;;;;;;;7.25;5.47;;;;;;;15.95;100.00;102493.88;6216615;23;20012;-68
2022/08/09 03:23:45;;;;;;;7.88;5.13;;;;;;;15.97;100.00;102499.13;6216087;23;20011;-68
2022/08/09 03:26:13;;;;;;;8.75;5.10;;;;;;;15.93;100.00;102492.44;6215850;23;20367;-69
2022/08/09 03:28:40;;;;;;;10.13;5.22;;;;;;;15.84;100.00;102493.78;6215191;23;20076;-68
2022/08/09 03:31:06;;;;;;;7.93;5.50;;;;;;;15.84;100.00;102485.59;6215896;23;20005;-69
2022/08/09 03:33:32;;;;;;;6.65;4.90;;;;;;;15.82;100.00;102495.88;6189211;23;20034;-68
2022/08/09 03:35:57;;;;;;;6.40;4.60;;;;;;;15.87;100.00;102485.97;6216243;23;20029;-69
2022/08/09 03:38:23;;;;;;;6.88;4.97;;;;;;;15.84;100.00;102493.78;6215746;23;20388;-69
2022/08/09 03:40:48;;;;;;;8.27;4.60;;;;;;;15.87;100.00;102490.59;6215272;23;20035;-69
2022/08/09 03:43:13;;;;;;;9.70;4.80;;;;;;;15.83;100.00;102492.91;6215773;23;20008;-69
2022/08/09 03:45:39;;;;;;;7.93;5.07;;;;;;;15.81;100.00;102494.22;6215892;23;20381;-69
2022/08/09 03:48:04;;;;;;;6.75;5.22;;;;;;;15.73;100.00;102489.78;6215693;23;20000;-68
2022/08/09 03:50:32;;;;;;;6.57;5.07;;;;;;;15.72;100.00;102494.44;6215717;23;20005;-69
2022/08/09 03:53:00;;;;;;;9.35;5.10;;;;;;;15.72;100.00;102499.06;6215610;23;20000;-69
2022/08/09 03:55:26;;;;;;;7.00;4.82;;;;;;;15.74;100.00;102496.94;6215131;23;20010;-68
2022/08/09 03:57:52;;;;;;;8.82;5.47;;;;;;;15.73;100.00;102492.53;6215769;23;20009;-69
2022/08/09 04:00:18;;;;;;;6.70;5.43;;;;;;;15.68;100.00;102498.66;6215162;23;20080;-68
2022/08/09 04:02:44;;;;;;;7.13;5.13;;;;;;;15.62;100.00;102504.97;6211699;23;20040;-68
2022/08/09 04:05:09;;;;;;;6.45;5.10;;;;;;;15.65;100.00;102504.53;6214790;23;20430;-68
2022/08/09 04:07:35;;;;;;;7.15;5.20;;;;;;;15.57;100.00;102496.63;6188817;23;20058;-69
2022/08/09 04:10:01;;;;;;;16.55;5.63;;;;;;;15.56;100.00;102495.78;6215457;23;20075;-69
2022/08/09 04:12:42;;;;;;;10.15;5.43;;;;;;;15.62;100.00;102491.34;6214490;23;20032;-69
2022/08/09 04:15:07;;;;;;;8.77;5.70;;;;;;;15.57;100.00;102500.19;6215558;23;20063;-69
2022/08/09 04:17:33;;;;;;;10.32;5.43;;;;;;;15.64;100.00;102488.38;6215334;23;20228;-69
2022/08/09 04:19:58;;;;;;;7.88;5.53;;;;;;;15.55;100.00;102490.53;6215470;23;20052;-69
2022/08/09 04:22:23;;;;;;;8.80;5.47;;;;;;;15.59;100.00;102489.91;6215692;23;20013;-69
2022/08/09 04:24:49;;;;;;;7.85;5.90;;;;;;;15.54;100.00;102492.44;6215127;23;20011;-68
2022/08/09 04:27:14;;;;;;;13.43;5.60;;;;;;;15.52;100.00;102499.16;6215167;23;20000;-69
2022/08/09 04:29:40;;;;;;;9.32;5.15;;;;;;;15.49;100.00;102499.59;6214988;23;20011;-69
2022/08/09 04:32:05;;;;;;;7.65;5.55;;;;;;;15.51;100.00;102508.41;6215502;23;20448;-69
2022/08/09 04:34:32;;;;;;;7.32;6.10;;;;;;;15.49;100.00;102510.50;6214998;23;20090;-69
2022/08/09 04:36:59;;;;;;;10.25;5.57;;;;;;;15.48;100.00;102514.31;6215351;23;20016;-69
2022/08/09 04:39:24;;;;;;;8.25;5.72;;;;;;;15.46;100.00;102514.53;6214813;23;20059;-69
2022/08/09 04:41:49;;;;;;;8.85;5.78;;;;;;;15.44;100.00;102513.88;6214657;23;20350;-69
2022/08/09 04:44:15;;;;;;;11.25;5.85;;;;;;;15.46;100.00;102519.97;6214906;23;20087;-69
2022/08/09 04:46:40;;;;;;;8.82;6.10;;;;;;;15.40;100.00;102513.50;6215261;23;20059;-69
2022/08/09 04:49:06;;;;;;;8.70;6.10;;;;;;;15.48;100.00;102515.13;6214980;23;20004;-69
2022/08/09 04:51:31;;;;;;;7.82;5.97;;;;;;;15.50;100.00;102515.75;6215518;23;20001;-69
2022/08/09 04:53:56;;;;;;;9.05;5.80;;;;;;;15.49;100.00;102511.38;6214885;23;20434;-69
2022/08/09 04:56:22;;;;;;;9.77;6.25;;;;;;;15.54;100.00;102514.25;6214682;23;20015;-69
2022/08/09 04:58:47;;;;;;;12.07;6.13;;;;;;;15.57;100.00;102523.91;6214601;23;20001;-69
2022/08/09 05:01:12;;;;;;;12.18;6.40;;;;;;;15.56;100.00;102520.31;6211367;23;20466;-69
2022/08/09 05:03:38;;;;;;;11.18;6.38;;;;;;;15.58;100.00;102529.16;6215167;23;20005;-69
2022/08/09 05:06:05;;;;;;;9.75;6.13;;;;;;;15.53;100.00;102526.22;6215393;23;20031;-69
2022/08/09 05:08:31;;;;;;;8.30;6.28;;;;;;;15.56;100.00;102539.44;6215496;23;20346;-69
2022/08/09 05:10:57;;;;;;;9.85;6.55;;;;;;;15.50;100.00;102534.00;6215170;23;20001;-69
2022/08/09 05:13:22;;;;;;;8.00;6.38;;;;;;;15.52;100.00;102534.63;6214396;23;20062;-69
2022/08/09 05:15:47;;;;;;;7.72;6.32;;;;;;;15.52;100.00;102540.94;6212931;23;20039;-70
2022/08/09 05:18:13;;;;;;;7.82;6.57;;;;;;;15.54;100.00;102544.28;6215176;23;20001;-71
2022/08/09 05:20:38;;;;;;;14.48;6.88;;;;;;;15.55;100.00;102542.38;6214655;23;20065;-69
2022/08/09 05:23:03;;;;;;;11.48;6.55;;;;;;;15.53;100.00;102537.13;6215219;23;20044;-69
2022/08/09 05:25:28;;;;;;;9.63;6.97;;;;;;;15.55;100.00;102531.47;6215323;23;20300;-68
2022/08/09 05:27:54;;;;;;;9.50;6.95;;;;;;;15.59;100.00;102536.28;6214587;23;20012;-69
2022/08/09 05:30:19;;;;;;;12.18;7.35;;;;;;;15.69;100.00;102533.06;6214467;23;20039;-68
2022/08/09 05:32:45;;;;;;;15.73;7.35;;;;;;;15.68;100.00;102536.03;6214550;23;20602;-68
2022/08/09 05:35:10;;;;;;;10.52;7.30;;;;;;;15.73;100.00;102539.78;6214411;23;20016;-69
2022/08/09 05:37:36;;;;;;;9.65;7.55;;;;;;;15.81;100.00;102524.25;6214626;23;20011;-69
2022/08/09 05:40:02;;;;;;;9.13;7.20;;;;;;;15.85;100.00;102528.19;6214576;23;20315;-69
2022/08/09 05:42:27;;;;;;;11.32;7.72;;;;;;;15.87;100.00;102537.84;6214479;23;20322;-69
2022/08/09 05:44:53;;;;;;;9.85;8.13;;;;;;;15.94;100.00;102551.44;6214047;23;20000;-69
2022/08/09 05:47:21;;;;;;;14.88;7.38;;;;;;;15.99;100.00;102551.63;6214406;23;20012;-69
2022/08/09 05:49:46;;;;;;;11.25;7.88;;;;;;;16.04;100.00;102535.41;6214564;23;20000;-69
2022/08/09 05:52:11;;;;;;;11.38;7.68;;;;;;;16.05;100.00;102545.28;6214776;23;20031;-69
2022/08/09 05:54:37;;;;;;;10.30;7.65;;;;;;;16.10;100.00;102548.19;6215072;23;20001;-70
2022/08/09 05:57:02;;;;;;;10.55;7.82;;;;;;;16.14;100.00;102551.31;6214815;23;20318;-69
2022/08/09 05:59:28;;;;;;;9.75;8.15;;;;;;;16.22;100.00;102553.78;6214676;23;20005;-70
2022/08/09 06:01:53;;;;;;;11.23;7.50;;;;;;;16.27;100.00;102555.84;6210549;23;20012;-69
2022/08/09 06:04:18;;;;;;;12.60;7.78;;;;;;;16.29;100.00;102556.47;6215076;23;20004;-69
2022/08/09 06:06:43;;;;;;;12.82;7.93;;;;;;;16.32;100.00;102556.03;6215880;23;20005;-69
2022/08/09 06:09:09;;;;;;;13.25;7.97;;;;;;;16.38;100.00;102557.00;6214410;23;20326;-70
2022/08/09 06:11:34;;;;;;;15.52;7.90;;;;;;;16.44;100.00;102556.97;6234718;23;20015;-69
2022/08/09 06:13:59;;;;;;;10.02;8.32;;;;;;;16.47;100.00;102556.53;6237813;23;19997;-71
2022/08/09 06:16:25;;;;;;;12.10;8.20;;;;;;;16.53;100.00;102564.88;6214772;23;20016;-70
2022/08/09 06:18:50;;;;;;;12.52;7.38;;;;;;;16.55;100.00;102562.78;6214430;23;20008;-70
2022/08/09 06:21:15;;;;;;;12.52;7.90;;;;;;;16.60;100.00;102560.22;6214358;23;20001;-70
2022/08/09 06:23:41;;;;;;;11.10;7.78;;;;;;;16.63;100.00;102566.06;6214185;23;20020;-70
2022/08/09 06:26:06;;;;;;;10.75;7.75;;;;;;;16.69;100.00;102567.06;6214428;23;20009;-70
2022/08/09 06:28:31;;;;;;;10.95;7.75;;;;;;;16.69;100.00;102580.72;6213916;23;20012;-71
2022/08/09 06:30:56;;;;;;;11.45;7.68;;;;;;;16.72;100.00;102574.81;6213910;23;20000;-71
2022/08/09 06:33:22;;;;;;;11.23;7.70;;;;;;;16.79;100.00;102577.50;6214184;23;19996;-71
2022/08/09 06:35:47;;;;;;;11.32;7.88;;;;;;;16.80;100.00;102574.53;6214445;23;20056;-71
2022/08/09 06:38:12;;;;;;;18.05;8.13;;;;;;;16.83;100.00;102574.09;6214263;23;20005;-69
2022/08/09 06:40:38;;;;;;;11.13;8.32;;;;;;;16.86;100.00;102580.16;6214655;23;20005;-71
2022/08/09 06:43:03;;;;;;;10.18;7.80;;;;;;;16.91;100.00;102581.19;6214150;23;20066;-71
2022/08/09 06:45:28;;;;;;;11.63;8.07;;;;;;;16.98;100.00;102576.50;6214558;23;20012;-70
2022/08/09 06:47:54;;;;;;;14.15;7.72;;;;;;;17.07;100.00;102574.28;6213860;23;20001;-71
2022/08/09 06:50:19;;;;;;;10.82;7.70;;;;;;;17.10;100.00;102568.34;6213864;23;20011;-71
2022/08/09 06:52:44;;;;;;;10.00;7.63;;;;;;;17.15;100.00;102578.63;6213539;23;20028;-71
2022/08/09 06:55:18;;;;;;;16.27;8.63;;;;;;;17.21;100.00;102585.94;6213939;23;20005;-70
2022/08/09 06:57:43;;;;;;;17.85;8.82;;;;;;;17.26;100.00;102583.34;6214393;23;20008;-70
2022/08/09 07:00:09;;;;;;;11.63;8.65;;;;;;;17.30;100.00;102580.97;6216166;23;20001;-70
2022/08/09 07:02:35;;;;;;;12.43;8.52;;;;;;;17.40;100.00;102586.75;6212482;23;20071;-70
2022/08/09 07:05:01;;;;;;;9.77;8.07;;;;;;;17.47;100.00;102587.53;6215705;23;20264;-70
2022/08/09 07:07:27;;;;;;;13.80;8.07;;;;;;;17.53;100.00;102591.25;6215757;23;20086;-70
2022/08/09 07:09:52;;;;;;;10.20;8.30;;;;;;;17.58;100.00;102587.84;6215374;23;20008;-70
2022/08/09 07:12:18;;;;;;;10.73;8.15;;;;;;;17.61;100.00;102590.09;6216211;23;20005;-71
2022/08/09 07:14:44;;;;;;;11.52;7.93;;;;;;;17.68;100.00;102596.34;6215874;23;20001;-70
2022/08/09 07:17:10;;;;;;;10.38;7.90;;;;;;;17.75;99.43;102598.97;6216277;23;20462;-70
2022/08/09 07:19:35;;;;;;;12.90;8.20;;;;;;;17.83;100.00;102602.25;6215790;23;20000;-70
2022/08/09 07:22:00;;;;;;;11.88;7.68;;;;;;;17.86;98.23;102595.44;6215911;23;20008;-70
2022/08/09 07:24:29;;;;;;;11.45;7.95;;;;;;;17.94;97.57;102592.44;6215465;23;20443;-70
2022/08/09 07:26:54;;;;;;;12.63;8.02;;;;;;;17.98;97.19;102587.31;6215632;23;20062;-70
2022/08/09 07:29:20;;;;;;;12.57;8.35;;;;;;;18.04;97.08;102586.38;6216272;23;20004;-70
2022/08/09 07:31:45;;;;;;;12.75;8.25;;;;;;;18.05;94.45;102586.16;6214944;23;20422;-71
2022/08/09 07:34:10;;;;;;;13.50;8.02;;;;;;;18.12;95.80;102587.97;6215403;23;20008;-71
2022/08/09 07:36:36;;;;;;;11.73;8.88;;;;;;;18.20;94.83;102602.16;6216251;23;20008;-71
2022/08/09 07:39:01;;;;;;;17.77;8.02;;;;;;;18.23;93.01;102600.88;6188854;23;20004;-71
2022/08/09 07:41:27;;;;;;;17.42;8.70;;;;;;;18.30;93.45;102595.28;6189409;23;20075;-71
2022/08/09 07:43:52;;;;;;;10.82;7.90;;;;;;;18.37;94.25;102594.13;6215844;23;20422;-71
2022/08/09 07:46:17;;;;;;;13.68;8.15;;;;;;;18.46;90.40;102599.25;6215815;23;20079;-72
2022/08/09 07:48:43;;;;;;;10.52;7.35;;;;;;;18.50;89.07;102600.47;6215552;23;20008;-71
2022/08/09 07:51:08;;;;;;;14.93;8.40;;;;;;;18.55;89.15;102592.34;6188400;23;20353;-71
2022/08/09 07:53:34;;;;;;;11.10;8.27;;;;;;;18.60;89.55;102590.56;6188744;23;20054;-72
2022/08/09 07:55:59;;;;;;;12.98;8.45;;;;;;;18.67;89.25;102600.59;6215199;23;20009;-71
2022/08/09 07:58:25;;;;;;;14.13;8.10;;;;;;;18.68;88.67;102594.03;6215380;23;20082;-72
2022/08/09 08:00:50;;;;;;;12.43;8.00;;;;;;;18.76;86.82;102600.00;6212664;23;20552;-71
2022/08/09 08:03:15;;;;;;;10.93;7.75;;;;;;;18.87;89.07;102595.63;6214523;23;20012;-71
2022/08/09 08:05:41;;;;;;;13.05;7.78;;;;;;;18.93;85.13;102600.16;6214570;23;20009;-72
2022/08/09 08:08:09;;;;;;;11.77;7.40;;;;;;;19.02;84.56;102614.38;6188319;23;19997;-72
2022/08/09 08:10:35;;;;;;;11.23;7.72;;;;;;;19.03;83.90;102607.78;6214583;23;20000;-71
2022/08/09 08:13:01;;;;;;;10.60;7.22;;;;;;;19.13;84.14;102604.47;6213867;23;20040;-70
2022/08/09 08:15:26;;;;;;;15.35;7.50;;;;;;;19.18;83.83;102601.81;6215550;23;20068;-70
2022/08/09 08:17:52;;;;;;;11.02;7.25;;;;;;;19.24;82.83;102606.34;6215542;23;20005;-70
2022/08/09 08:20:21;;;;;;;9.45;6.25;;;;;;;19.33;82.48;102603.25;6239902;23;20008;-69
2022/08/09 08:22:47;;;;;;;10.07;6.20;;;;;;;19.38;81.74;102600.59;6221095;23;20008;-71
2022/08/09 08:25:13;;;;;;;11.98;7.63;;;;;;;19.42;81.51;102596.28;6216504;23;20004;-72
2022/08/09 08:27:39;;;;;;;10.27;6.07;;;;;;;19.45;79.24;102595.81;6215849;23;20005;-72
2022/08/09 08:30:05;;;;;;;16.30;6.30;;;;;;;19.52;79.18;102607.50;6213936;23;20445;-72
2022/08/09 08:32:30;;;;;;;12.85;6.45;;;;;;;19.56;78.21;102597.66;6214732;23;20036;-72
2022/08/09 08:34:59;;;;;;;12.10;6.93;;;;;;;19.62;78.66;102596.69;6214944;23;20070;-72
2022/08/09 08:37:29;;;;;;;11.82;6.70;;;;;;;19.70;78.99;102601.00;6215802;23;20040;-71
2022/08/09 08:39:54;;;;;;;9.90;6.20;;;;;;;19.75;78.27;102600.25;6215590;23;20001;-72
2022/08/09 08:42:20;;;;;;;11.50;5.15;;;;;;;19.85;74.48;102613.38;6215582;23;20373;-72
2022/08/09 08:44:50;;;;;;;10.13;5.50;;;;;;;19.89;73.36;102604.41;6215685;23;20012;-72
2022/08/09 08:47:16;;;;;;;10.43;5.65;;;;;;;19.95;73.48;102603.41;6214853;23;20009;-70
2022/08/09 08:49:42;;;;;;;10.43;5.20;;;;;;;19.98;73.42;102604.84;6213466;23;20012;-70
2022/08/09 08:52:07;;;;;;;9.27;5.10;;;;;;;20.03;72.88;102604.13;6213471;23;20063;-69
2022/08/09 08:54:34;;;;;;;7.07;4.65;;;;;;;20.11;72.65;102600.94;6214865;23;20110;-71
2022/08/09 08:57:01;;;;;;;9.68;5.45;;;;;;;20.20;71.69;102602.25;6214562;23;20004;-72
2022/08/09 08:59:27;;;;;;;8.23;5.07;;;;;;;20.25;72.17;102599.56;6215105;23;20407;-72
2022/08/09 09:01:52;;;;;;;9.20;4.50;;;;;;;20.31;71.92;102606.81;6211111;23;20039;-70
2022/08/09 09:04:20;;;;;;;7.47;4.60;;;;;;;20.42;70.76;102610.59;6216021;23;20076;-70
2022/08/09 09:06:50;;;;;;;10.18;4.80;;;;;;;20.49;70.70;102611.25;6221976;23;19989;-70
2022/08/09 09:09:17;;;;;;;8.50;3.65;;;;;;;20.57;69.93;102618.25;6235435;23;20000;-70
2022/08/09 09:11:43;;;;;;;8.32;3.63;;;;;;;20.63;70.00;102611.75;6234873;23;20092;-72
2022/08/09 09:14:14;;;;;;;11.27;3.90;;;;;;;20.76;69.13;102620.78;6215387;23;20012;-74
2022/08/09 09:16:39;;;;;;;6.85;3.10;;;;;;;20.83;66.77;102615.94;6215469;23;20001;-71
2022/08/09 09:19:10;;;;;;;8.43;4.32;;;;;;;20.86;67.41;102618.19;6213291;23;20331;-73
2022/08/09 09:21:35;;;;;;;8.35;3.88;;;;;;;20.89;67.11;102620.44;6215228;23;20001;-71
2022/08/09 09:24:05;;;;;;;4.53;2.60;;;;;;;20.95;65.50;102624.13;6213400;23;20020;-72
2022/08/09 09:26:33;;;;;;;7.07;2.92;;;;;;;21.02;63.97;102620.09;6214790;23;20015;-71
2022/08/09 09:29:00;;;;;;;5.93;2.65;;;;;;;21.04;64.04;102620.66;6213452;23;20110;-70
2022/08/09 09:31:26;;;;;;;5.80;2.10;;;;;;;21.18;64.69;102623.91;6214172;23;20082;-70
2022/08/09 09:33:51;;;;;;;5.53;2.03;;;;;;;21.26;62.75;102628.16;6211068;23;20022;-70
2022/08/09 09:36:17;;;;;;;5.30;2.40;;;;;;;21.29;63.01;102619.38;6214152;23;20032;-70
2022/08/09 09:38:47;;;;;;;5.50;2.00;;;;;;;21.35;63.49;102612.03;6214658;23;20303;-70
2022/08/09 09:41:22;;;;;;;6.00;2.63;;;;;;;21.46;63.60;102619.31;6214202;23;20008;-70
2022/08/09 09:43:47;;;;;;;6.50;2.22;;;;;;;21.51;62.08;102613.06;6214090;23;20012;-70
2022/08/09 09:46:12;;;;;;;3.65;1.48;;;;;;;21.59;60.39;102609.88;6187687;23;20055;-70
2022/08/09 09:48:38;;;;;;;8.75;1.70;;;;;;;21.65;59.79;102605.25;6214706;23;20079;-69
2022/08/09 09:51:03;;;;;;;3.08;1.88;;;;;;;21.66;59.88;102606.94;6212884;23;20091;-71
2022/08/09 09:53:29;;;;;;;4.88;2.50;;;;;;;21.68;60.02;102605.59;6214393;23;20139;-70
2022/08/09 09:56:04;;;;;;;6.43;2.20;;;;;;;21.78;60.22;102624.16;6187540;23;20026;-70
2022/08/09 09:58:45;;;;;;;5.25;2.33;;;;;;;21.81;61.05;102606.28;6215179;23;20074;-70
2022/08/09 10:01:18;;;;;;;5.35;1.83;;;;;;;21.89;59.77;102608.56;6209921;23;20333;-70
2022/08/09 10:03:49;;;;;;;4.45;1.60;;;;;;;21.99;58.46;102611.44;6213695;23;20012;-70
2022/08/09 10:06:15;;;;;;;5.22;1.58;;;;;;;22.07;56.33;102613.72;6212746;23;20444;-70
2022/08/09 10:08:42;;;;;;;3.28;1.23;;;;;;;22.09;54.42;102617.06;6213714;23;20008;-70
2022/08/09 10:11:18;;;;;;;4.57;1.35;;;;;;;22.19;56.63;102621.00;6212636;23;20075;-70
2022/08/09 10:13:44;;;;;;;3.42;1.60;;;;;;;22.24;56.33;102619.13;6213147;23;20036;-69
2022/08/09 10:16:10;;;;;;;5.03;1.63;;;;;;;22.33;55.24;102621.44;6214270;23;20004;-70
2022/08/09 10:18:35;;;;;;;3.92;1.48;;;;;;;22.33;55.44;102622.28;6214956;23;20008;-70
2022/08/09 10:21:08;;;;;;;1.83;1.13;;;;;;;22.35;54.10;102613.75;6212904;23;20433;-71
2022/08/09 10:23:33;;;;;;;3.92;1.17;;;;;;;22.42;53.74;102608.81;6213527;23;20008;-70
2022/08/09 10:26:01;;;;;;;5.38;1.20;;;;;;;22.48;54.18;102605.03;6213030;23;20004;-73
2022/08/09 10:28:28;;;;;;;3.05;1.20;;;;;;;22.59;54.13;102608.72;6213518;23;20422;-72
2022/08/09 10:30:53;;;;;;;4.93;1.30;;;;;;;22.64;54.09;102612.31;6213185;23;20417;-71
2022/08/09 10:33:19;;;;;;;4.72;1.10;;;;;;;22.72;54.34;102596.38;6213566;23;20000;-71
2022/08/09 10:35:45;;;;;;;6.63;1.50;;;;;;;22.80;52.50;102613.28;6216327;23;20379;-71
2022/08/09 10:38:11;;;;;;;5.13;1.00;;;;;;;22.83;51.97;102609.97;6216499;23;20093;-72
2022/08/09 10:40:37;;;;;;;2.33;1.05;;;;;;;22.88;51.44;102606.44;6216197;23;20008;-72
2022/08/09 10:43:04;;;;;;;5.32;1.00;;;;;;;22.92;50.51;102610.31;6216209;23;20009;-72
2022/08/09 10:45:30;;;;;;;3.30;1.23;;;;;;;22.98;51.07;102597.41;6216482;23;20024;-71
2022/08/09 10:48:09;;;;;;;3.30;1.10;;;;;;;23.01;52.92;102594.09;6216401;23;20009;-71
2022/08/09 10:54:09;;;;;;;2.55;0.82;;;;;;;23.26;52.25;102587.06;6216413;23;20015;-72
2022/08/09 10:56:40;;;;;;;3.35;0.73;;;;;;;23.28;49.70;102587.63;6216276;23;20004;-72
2022/08/09 10:59:23;;;;;;;7.47;1.37;;;;;;;23.32;50.82;102589.56;6216408;23;20008;-71
2022/08/09 11:01:50;;;;;;;2.67;0.80;;;;;;;23.40;48.86;102574.44;6212156;23;20013;-71
2022/08/09 11:04:19;;;;;;;2.40;1.00;;;;;;;23.51;49.31;102581.66;6189755;23;20334;-72
2022/08/09 11:07:06;;;;;;;3.50;1.35;;;;;;;23.59;49.10;102594.09;6224281;23;20004;-70
2022/08/09 11:09:37;;;;;;;3.88;0.90;;;;;;;23.59;49.47;102585.00;6189602;23;20491;-71
2022/08/09 11:12:16;;;;;;;3.63;1.08;;;;;;;23.59;48.58;102576.72;6189743;23;20365;-70
2022/08/09 11:14:49;;;;;;;4.47;1.00;;;;;;;23.70;48.66;102583.91;6216545;23;20417;-71
2022/08/09 11:17:15;;;;;;;2.90;1.30;;;;;;;23.77;47.90;102590.00;6215778;23;20004;-72
2022/08/09 11:20:09;;;;;;;3.13;0.90;;;;;;;23.88;47.94;102586.22;6216611;23;20027;-71
2022/08/09 11:22:40;;;;;;;5.60;1.10;;;;;;;23.92;47.20;102582.91;6216556;23;20027;-71
2022/08/09 11:25:08;;;;;;;3.40;1.00;;;;;;;24.03;47.24;102581.81;6214814;23;20016;-71
2022/08/09 11:27:38;;;;;;;3.08;1.13;;;;;;;24.08;46.94;102580.97;6216444;23;20004;-71